createdAt,value
2018-11-28T00:00:02.941Z,1.98
2018-11-28T00:01:02.929Z,1.99
2018-11-28T00:02:02.939Z,1.97
2018-11-28T00:03:02.934Z,2.04
2018-11-28T00:04:02.894Z,1.98
2018-11-28T00:05:02.885Z,2.01
2018-11-28T00:06:02.873Z,2.09
2018-11-28T00:07:02.884Z,1.99
2018-11-28T00:08:02.860Z,1.98
2018-11-28T00:09:02.858Z,1.91
2018-11-28T00:10:02.830Z,1.99
2018-11-28T00:11:02.824Z,2.01
2018-11-28T00:12:02.829Z,2.06
2018-11-28T00:13:02.818Z,1.98
2018-11-28T00:14:02.786Z,2.20
2018-11-28T00:15:02.786Z,2.61
2018-11-28T00:16:02.764Z,2.66
2018-11-28T00:17:02.784Z,2.46
2018-11-28T00:18:02.760Z,2.12
2018-11-28T00:19:02.733Z,1.91
2018-11-28T00:20:02.718Z,1.82
2018-11-28T00:21:02.726Z,1.82
2018-11-28T00:22:02.723Z,1.83
2018-11-28T00:23:02.689Z,1.78
2018-11-28T00:24:02.672Z,1.71
2018-11-28T00:25:02.665Z,1.68
2018-11-28T00:26:02.655Z,1.75
2018-11-28T00:27:02.675Z,1.83
2018-11-28T00:28:02.632Z,1.72
2018-11-28T00:29:02.620Z,1.73
2018-11-28T00:30:02.614Z,1.82
2018-11-28T00:31:02.600Z,1.68
2018-11-28T00:32:02.612Z,1.69
2018-11-28T00:33:02.577Z,1.72
2018-11-28T00:34:02.566Z,1.80
2018-11-28T00:35:02.553Z,1.72
2018-11-28T00:36:02.537Z,1.71
2018-11-28T00:37:02.555Z,1.62
2018-11-28T00:38:02.544Z,1.69
2018-11-28T00:39:02.520Z,1.72
2018-11-28T00:40:02.493Z,1.78
2018-11-28T00:41:02.482Z,1.73
2018-11-28T00:42:02.498Z,1.83
2018-11-28T00:43:02.486Z,1.78
2018-11-28T00:44:02.459Z,1.90
2018-11-28T00:45:02.447Z,1.90
2018-11-28T00:46:02.432Z,1.91
2018-11-28T00:47:02.418Z,1.98
2018-11-28T00:48:02.429Z,1.85
2018-11-28T00:49:02.396Z,1.89
2018-11-28T00:50:02.384Z,1.91
2018-11-28T00:51:02.384Z,2.01
2018-11-28T00:52:02.384Z,2.01
2018-11-28T00:53:02.373Z,2.06
2018-11-28T00:54:02.345Z,1.99
2018-11-28T00:55:02.327Z,2.06
2018-11-28T00:56:02.319Z,1.98
2018-11-28T00:57:02.361Z,2.08
2018-11-28T00:58:02.296Z,2.12
2018-11-28T00:59:02.288Z,2.04
2018-11-28T01:00:02.274Z,2.02
2018-11-28T01:01:02.261Z,2.02
2018-11-28T01:02:02.272Z,1.98
2018-11-28T01:03:02.277Z,1.99
2018-11-28T01:04:02.229Z,1.97
2018-11-28T01:05:02.219Z,2.01
2018-11-28T01:06:02.211Z,1.97
2018-11-28T01:07:02.222Z,2.12
2018-11-28T01:08:02.183Z,2.17
2018-11-28T01:09:02.182Z,2.12
2018-11-28T01:10:02.163Z,2.08
2018-11-28T01:11:02.154Z,2.06
2018-11-28T01:12:02.161Z,2.02
2018-11-28T01:13:02.161Z,2.04
2018-11-28T01:14:02.117Z,2.01
2018-11-28T01:15:02.119Z,2.06
2018-11-28T01:16:02.097Z,2.16
2018-11-28T01:17:02.110Z,2.26
2018-11-28T01:18:02.096Z,2.48
2018-11-28T01:19:02.060Z,2.35
2018-11-28T01:20:02.048Z,2.45
2018-11-28T01:21:02.081Z,2.48
2018-11-28T01:22:02.031Z,2.79
2018-11-28T01:23:02.041Z,2.98
2018-11-28T01:24:02.008Z,2.92
2018-11-28T01:25:01.998Z,2.79
2018-11-28T01:26:03.009Z,2.69
2018-11-28T01:27:02.019Z,3.07
2018-11-28T01:28:01.959Z,2.98
2018-11-28T01:29:01.952Z,2.71
2018-11-28T01:30:02.000Z,2.44
2018-11-28T01:31:01.928Z,2.31
2018-11-28T01:32:01.942Z,2.37
2018-11-28T01:33:01.922Z,2.38
2018-11-28T01:34:01.915Z,2.34
2018-11-28T01:35:01.883Z,2.33
2018-11-28T01:36:01.874Z,2.38
2018-11-28T01:37:01.862Z,2.45
2018-11-28T01:38:01.852Z,2.51
2018-11-28T01:39:01.886Z,2.44
2018-11-28T01:40:01.835Z,2.41
2018-11-28T01:41:01.822Z,2.49
2018-11-28T01:42:01.804Z,2.48
2018-11-28T01:43:01.793Z,2.48
2018-11-28T01:44:01.804Z,2.46
2018-11-28T01:45:01.782Z,2.41
2018-11-28T01:46:01.769Z,2.56
2018-11-28T01:47:01.755Z,2.44
2018-11-28T01:48:01.768Z,2.40
2018-11-28T01:49:01.733Z,2.33
2018-11-28T01:50:01.787Z,2.48
2018-11-28T01:51:01.723Z,2.45
2018-11-28T01:52:01.703Z,2.48
2018-11-28T01:53:01.708Z,2.34
2018-11-28T01:54:01.673Z,2.45
2018-11-28T01:55:01.661Z,2.48
2018-11-28T01:56:01.653Z,2.41
2018-11-28T01:57:01.658Z,2.52
2018-11-28T01:58:01.653Z,2.61
2018-11-28T01:59:01.616Z,2.58
2018-11-28T02:00:01.613Z,2.61
2018-11-28T02:01:01.595Z,2.67
2018-11-28T02:02:01.639Z,2.64
2018-11-28T02:03:01.620Z,2.56
2018-11-28T02:04:01.559Z,2.52
2018-11-28T02:05:01.547Z,2.49
2018-11-28T02:06:01.544Z,2.55
2018-11-28T02:07:01.525Z,2.59
2018-11-28T02:08:01.540Z,2.61
2018-11-28T02:09:01.523Z,2.63
2018-11-28T02:10:01.494Z,2.59
2018-11-28T02:11:01.485Z,2.67
2018-11-28T02:12:01.471Z,2.56
2018-11-28T02:13:01.485Z,2.53
2018-11-28T02:14:01.474Z,2.66
2018-11-28T02:15:01.449Z,2.64
2018-11-28T02:16:01.429Z,2.64
2018-11-28T02:17:01.414Z,2.59
2018-11-28T02:18:01.431Z,2.59
2018-11-28T02:19:01.415Z,2.55
2018-11-28T02:20:01.384Z,2.52
2018-11-28T02:21:01.388Z,2.53
2018-11-28T02:22:01.391Z,2.59
2018-11-28T02:23:01.347Z,2.63
2018-11-28T02:24:01.363Z,2.59
2018-11-28T02:25:01.329Z,2.55
2018-11-28T02:26:01.317Z,2.56
2018-11-28T02:27:01.306Z,2.55
2018-11-28T02:28:01.318Z,2.56
2018-11-28T02:29:01.307Z,2.55
2018-11-28T02:30:01.282Z,2.51
2018-11-28T02:31:01.258Z,2.61
2018-11-28T02:32:01.265Z,2.53
2018-11-28T02:33:01.243Z,2.55
2018-11-28T02:34:01.262Z,2.55
2018-11-28T02:35:01.235Z,2.37
2018-11-28T02:36:01.207Z,2.44
2018-11-28T02:37:01.206Z,2.46
2018-11-28T02:38:01.228Z,2.44
2018-11-28T02:39:01.176Z,2.51
2018-11-28T02:40:01.166Z,2.44
2018-11-28T02:41:01.158Z,2.40
2018-11-28T02:42:01.155Z,2.55
2018-11-28T02:43:01.168Z,2.52
2018-11-28T02:44:01.113Z,2.53
2018-11-28T02:45:01.107Z,2.53
2018-11-28T02:46:01.096Z,2.53
2018-11-28T02:47:01.091Z,2.52
2018-11-28T02:48:01.100Z,2.51
2018-11-28T02:49:01.070Z,2.53
2018-11-28T02:50:01.063Z,2.76
2018-11-28T02:51:01.038Z,2.67
2018-11-28T02:52:01.040Z,2.63
2018-11-28T02:53:01.040Z,2.53
2018-11-28T02:54:01.007Z,2.48
2018-11-28T02:55:00.991Z,2.40
2018-11-28T02:56:00.984Z,2.41
2018-11-28T02:57:01.032Z,2.37
2018-11-28T02:58:00.994Z,2.34
2018-11-28T02:59:00.993Z,2.38
2018-11-28T03:00:00.948Z,2.37
2018-11-28T03:01:01.045Z,2.33
2018-11-28T03:02:00.952Z,2.35
2018-11-28T03:03:00.927Z,2.44
2018-11-28T03:04:01.005Z,2.44
2018-11-28T03:05:00.891Z,2.41
2018-11-28T03:06:00.873Z,2.41
2018-11-28T03:07:00.895Z,2.38
2018-11-28T03:08:00.892Z,2.31
2018-11-28T03:09:00.839Z,2.33
2018-11-28T03:10:00.825Z,2.41
2018-11-28T03:11:00.816Z,2.30
2018-11-28T03:12:00.820Z,2.35
2018-11-28T03:13:00.821Z,2.33
2018-11-28T03:14:00.826Z,2.44
2018-11-28T03:15:00.768Z,2.45
2018-11-28T03:16:00.763Z,2.40
2018-11-28T03:17:00.749Z,2.44
2018-11-28T03:18:00.782Z,2.49
2018-11-28T03:19:00.741Z,2.40
2018-11-28T03:20:00.716Z,2.41
2018-11-28T03:21:00.705Z,2.45
2018-11-28T03:22:00.693Z,2.46
2018-11-28T03:23:00.713Z,2.44
2018-11-28T03:24:00.671Z,2.53
2018-11-28T03:25:00.698Z,2.59
2018-11-28T03:26:00.655Z,2.56
2018-11-28T03:27:00.636Z,2.66
2018-11-28T03:28:00.652Z,2.55
2018-11-28T03:29:00.614Z,2.41
2018-11-28T03:30:00.607Z,2.53
2018-11-28T03:31:00.611Z,2.61
2018-11-28T03:32:00.580Z,2.63
2018-11-28T03:33:00.596Z,2.55
2018-11-28T03:34:00.558Z,2.55
2018-11-28T03:35:00.575Z,2.52
2018-11-28T03:36:00.540Z,2.58
2018-11-28T03:37:00.542Z,2.63
2018-11-28T03:38:00.545Z,2.58
2018-11-28T03:39:00.512Z,2.59
2018-11-28T03:40:00.521Z,2.56
2018-11-28T03:41:00.484Z,2.55
2018-11-28T03:42:00.469Z,2.40
2018-11-28T03:43:00.486Z,2.44
2018-11-28T03:44:00.470Z,2.40
2018-11-28T03:45:00.437Z,2.52
2018-11-28T03:46:00.427Z,2.51
2018-11-28T03:47:00.417Z,2.53
2018-11-28T03:48:00.403Z,2.51
2018-11-28T03:49:00.449Z,2.51
2018-11-28T03:50:00.405Z,2.55
2018-11-28T03:51:00.767Z,2.56
2018-11-28T03:52:00.366Z,2.56
2018-11-28T03:53:00.352Z,2.64
2018-11-28T03:54:00.361Z,2.63
2018-11-28T03:55:00.332Z,2.67
2018-11-28T03:56:00.312Z,2.55
2018-11-28T03:57:00.302Z,2.64
2018-11-28T03:58:00.307Z,2.61
2018-11-28T03:59:00.306Z,2.55
2018-11-28T04:00:00.276Z,2.59
2018-11-28T04:01:00.284Z,2.63
2018-11-28T04:02:00.246Z,2.66
2018-11-28T04:03:00.235Z,2.67
2018-11-28T04:04:00.248Z,2.73
2018-11-28T04:05:00.240Z,2.74
2018-11-28T04:06:00.205Z,2.81
2018-11-28T04:07:00.230Z,2.82
2018-11-28T04:08:00.192Z,2.81
2018-11-28T04:09:00.199Z,2.79
2018-11-28T04:10:00.157Z,2.77
2018-11-28T04:11:00.147Z,2.87
2018-11-28T04:12:00.138Z,2.94
2018-11-28T04:13:00.142Z,2.87
2018-11-28T04:14:00.137Z,2.97
2018-11-28T04:15:00.129Z,2.97
2018-11-28T04:16:00.090Z,2.91
2018-11-28T04:17:00.081Z,2.98
2018-11-28T04:18:00.073Z,2.95
2018-11-28T04:19:00.201Z,2.94
2018-11-28T04:20:00.046Z,2.91
2018-11-28T04:21:00.037Z,2.98
2018-11-28T04:22:00.024Z,2.94
2018-11-28T04:23:00.015Z,3.00
2018-11-28T04:24:00.027Z,2.92
2018-11-28T04:25:00.006Z,3.03
2018-11-28T04:25:59.984Z,3.05
2018-11-28T04:26:59.968Z,2.95
2018-11-28T04:27:59.961Z,3.02
2018-11-28T04:28:59.977Z,3.05
2018-11-28T04:29:59.938Z,3.02
2018-11-28T04:30:59.956Z,2.98
2018-11-28T04:31:59.915Z,2.95
2018-11-28T04:32:59.904Z,3.07
2018-11-28T04:33:59.919Z,2.94
2018-11-28T04:34:59.887Z,2.95
2018-11-28T04:35:59.868Z,3.07
2018-11-28T04:36:59.873Z,3.12
2018-11-28T04:37:59.853Z,3.05
2018-11-28T04:38:59.860Z,3.10
2018-11-28T04:39:59.828Z,3.12
2018-11-28T04:40:59.839Z,3.10
2018-11-28T04:41:59.806Z,3.20
2018-11-28T04:42:59.807Z,3.12
2018-11-28T04:43:59.804Z,3.21
2018-11-28T04:44:59.771Z,3.30
2018-11-28T04:45:59.762Z,3.10
2018-11-28T04:46:59.757Z,3.24
2018-11-28T04:47:59.735Z,3.31
2018-11-28T04:48:59.762Z,3.18
2018-11-28T04:49:59.718Z,3.18
2018-11-28T04:50:59.726Z,3.27
2018-11-28T04:51:59.698Z,3.21
2018-11-28T04:52:59.680Z,3.24
2018-11-28T04:53:59.699Z,3.13
2018-11-28T04:54:59.679Z,3.28
2018-11-28T04:55:59.651Z,3.23
2018-11-28T04:56:59.635Z,3.23
2018-11-28T04:57:59.624Z,3.20
2018-11-28T04:58:59.639Z,3.16
2018-11-28T04:59:59.608Z,3.20
2018-11-28T05:00:59.635Z,3.16
2018-11-28T05:01:59.576Z,3.07
2018-11-28T05:02:59.570Z,3.12
2018-11-28T05:03:59.590Z,3.18
2018-11-28T05:04:59.547Z,3.12
2018-11-28T05:05:59.559Z,3.21
2018-11-28T05:06:59.528Z,3.23
2018-11-28T05:07:59.603Z,3.23
2018-11-28T05:08:59.562Z,3.12
2018-11-28T05:09:59.498Z,3.12
2018-11-28T05:10:59.514Z,3.30
2018-11-28T05:11:59.486Z,3.33
2018-11-28T05:12:59.459Z,3.30
2018-11-28T05:13:59.471Z,3.23
2018-11-28T05:14:59.448Z,3.20
2018-11-28T05:15:59.462Z,3.24
2018-11-28T05:16:59.421Z,3.42
2018-11-28T05:17:59.402Z,3.34
2018-11-28T05:18:59.421Z,3.30
2018-11-28T05:19:59.382Z,3.30
2018-11-28T05:20:59.370Z,3.31
2018-11-28T05:21:59.362Z,3.21
2018-11-28T05:22:59.369Z,3.24
2018-11-28T05:23:59.359Z,3.16
2018-11-28T05:24:59.323Z,3.23
2018-11-28T05:25:59.312Z,3.25
2018-11-28T05:26:59.304Z,3.24
2018-11-28T05:27:59.295Z,3.27
2018-11-28T05:28:59.318Z,3.27
2018-11-28T05:29:59.289Z,3.39
2018-11-28T05:30:59.258Z,3.25
2018-11-28T05:31:59.251Z,3.36
2018-11-28T05:32:59.237Z,3.30
2018-11-28T05:33:59.254Z,3.30
2018-11-28T05:34:59.214Z,3.30
2018-11-28T05:35:59.288Z,3.31
2018-11-28T05:36:59.190Z,3.30
2018-11-28T05:37:59.181Z,3.40
2018-11-28T05:38:59.168Z,3.36
2018-11-28T05:39:59.196Z,3.36
2018-11-28T05:40:59.170Z,3.31
2018-11-28T05:41:59.132Z,3.30
2018-11-28T05:42:59.125Z,3.28
2018-11-28T05:43:59.111Z,3.31
2018-11-28T05:44:59.126Z,3.30
2018-11-28T05:45:59.130Z,3.33
2018-11-28T05:46:59.092Z,3.30
2018-11-28T05:47:59.064Z,3.33
2018-11-28T05:48:59.057Z,3.34
2018-11-28T05:49:59.046Z,3.31
2018-11-28T05:50:59.056Z,3.33
2018-11-28T05:51:59.019Z,3.33
2018-11-28T05:52:59.028Z,3.40
2018-11-28T05:53:59.014Z,3.28
2018-11-28T05:54:59.015Z,3.34
2018-11-28T05:55:58.975Z,3.31
2018-11-28T05:56:58.974Z,3.36
2018-11-28T05:57:58.956Z,3.31
2018-11-28T05:58:58.956Z,3.46
2018-11-28T05:59:58.971Z,3.46
2018-11-28T06:00:58.924Z,3.36
2018-11-28T06:01:58.932Z,3.39
2018-11-28T06:02:58.907Z,3.42
2018-11-28T06:03:58.888Z,3.46
2018-11-28T06:04:58.905Z,3.46
2018-11-28T06:05:58.881Z,3.40
2018-11-28T06:06:58.855Z,3.49
2018-11-28T06:07:58.843Z,3.43
2018-11-28T06:08:58.835Z,3.43
2018-11-28T06:09:58.852Z,3.42
2018-11-28T06:10:58.810Z,3.43
2018-11-28T06:11:58.842Z,3.40
2018-11-28T06:12:58.784Z,3.46
2018-11-28T06:13:58.786Z,3.39
2018-11-28T06:14:58.792Z,3.42
2018-11-28T06:15:58.755Z,3.50
2018-11-28T06:16:58.767Z,3.47
2018-11-28T06:17:58.748Z,3.53
2018-11-28T06:18:58.717Z,3.50
2018-11-28T06:19:58.707Z,3.52
2018-11-28T06:20:58.701Z,3.57
2018-11-28T06:21:58.714Z,3.58
2018-11-28T06:22:58.672Z,3.60
2018-11-28T06:23:58.742Z,3.53
2018-11-28T06:24:58.706Z,3.57
2018-11-28T06:25:58.648Z,3.58
2018-11-28T06:26:58.700Z,3.64
2018-11-28T06:27:58.635Z,3.61
2018-11-28T06:28:58.633Z,3.53
2018-11-28T06:29:58.846Z,3.58
2018-11-28T06:30:58.700Z,3.65
2018-11-28T06:32:00.097Z,3.70
2018-11-28T06:32:58.583Z,3.71
2018-11-28T06:33:58.583Z,3.62
2018-11-28T06:34:58.574Z,3.58
2018-11-28T06:35:58.557Z,3.50
2018-11-28T06:36:58.523Z,3.57
2018-11-28T06:37:58.507Z,3.57
2018-11-28T06:38:58.504Z,3.53
2018-11-28T06:39:58.606Z,3.61
2018-11-28T06:40:58.519Z,3.57
2018-11-28T06:41:58.463Z,3.53
2018-11-28T06:42:58.501Z,3.58
2018-11-28T06:43:58.451Z,3.53
2018-11-28T06:44:58.483Z,3.71
2018-11-28T06:45:58.475Z,3.68
2018-11-28T06:46:58.409Z,3.70
2018-11-28T06:47:58.398Z,3.67
2018-11-28T06:48:58.385Z,3.70
2018-11-28T06:49:59.349Z,3.71
2018-11-28T06:51:00.462Z,3.78
2018-11-28T06:51:58.357Z,3.70
2018-11-28T06:52:58.341Z,3.72
2018-11-28T06:53:58.329Z,3.80
2018-11-28T06:54:58.381Z,3.76
2018-11-28T06:55:58.335Z,3.82
2018-11-28T06:56:58.302Z,4.00
2018-11-28T06:57:58.347Z,3.92
2018-11-28T06:58:58.286Z,4.01
2018-11-28T06:59:58.291Z,4.04
2018-11-28T07:00:58.282Z,4.10
2018-11-28T07:01:58.253Z,4.26
2018-11-28T07:02:58.269Z,4.36
2018-11-28T07:03:58.231Z,4.36
2018-11-28T07:04:58.331Z,4.19
2018-11-28T07:05:58.275Z,4.16
2018-11-28T07:06:58.207Z,4.10
2018-11-28T07:07:58.205Z,4.10
2018-11-28T07:08:58.305Z,3.97
2018-11-28T07:09:58.177Z,4.01
2018-11-28T07:10:58.147Z,3.92
2018-11-28T07:11:58.192Z,3.83
2018-11-28T07:12:58.120Z,3.97
2018-11-28T07:13:58.104Z,4.04
2018-11-28T07:14:58.175Z,3.96
2018-11-28T07:15:58.090Z,4.10
2018-11-28T07:16:58.099Z,4.15
2018-11-28T07:17:58.071Z,4.10
2018-11-28T07:18:58.057Z,4.08
2018-11-28T07:19:58.099Z,4.28
2018-11-28T07:20:58.026Z,4.14
2018-11-28T07:21:58.015Z,4.12
2018-11-28T07:22:58.027Z,4.26
2018-11-28T07:23:58.003Z,4.24
2018-11-28T07:24:58.011Z,4.10
2018-11-28T07:25:58.028Z,4.16
2018-11-28T07:26:57.961Z,4.22
2018-11-28T07:27:57.959Z,4.16
2018-11-28T07:28:57.942Z,4.18
2018-11-28T07:29:59.982Z,4.28
2018-11-28T07:30:57.915Z,4.25
2018-11-28T07:31:57.949Z,4.26
2018-11-28T07:32:57.900Z,4.34
2018-11-28T07:33:57.893Z,4.33
2018-11-28T07:34:57.872Z,4.29
2018-11-28T07:35:57.909Z,4.36
2018-11-28T07:36:57.849Z,4.34
2018-11-28T07:37:57.936Z,4.32
2018-11-28T07:38:57.833Z,4.24
2018-11-28T07:39:57.830Z,4.25
2018-11-28T07:40:57.872Z,4.28
2018-11-28T07:42:12.463Z,4.24
2018-11-28T07:42:57.782Z,4.29
2018-11-28T07:43:57.787Z,4.32
2018-11-28T07:44:57.858Z,4.36
2018-11-28T07:45:57.801Z,4.24
2018-11-28T07:46:57.755Z,4.32
2018-11-28T07:47:57.762Z,4.36
2018-11-28T07:48:57.770Z,4.32
2018-11-28T07:49:57.732Z,4.29
2018-11-28T07:50:57.720Z,4.37
2018-11-28T07:51:57.690Z,4.51
2018-11-28T07:52:57.733Z,4.57
2018-11-28T07:53:57.668Z,4.50
2018-11-28T07:54:57.661Z,4.67
2018-11-28T07:55:57.703Z,4.67
2018-11-28T07:56:57.654Z,4.65
2018-11-28T07:57:57.702Z,4.70
2018-11-28T07:58:57.623Z,4.62
2018-11-28T07:59:57.616Z,4.65
2018-11-28T08:00:57.617Z,4.64
2018-11-28T08:01:57.634Z,4.61
2018-11-28T08:02:57.714Z,4.62
2018-11-28T08:03:57.582Z,4.73
2018-11-28T08:04:57.572Z,4.69
2018-11-28T08:05:58.853Z,4.47
2018-11-28T08:06:57.606Z,4.59
2018-11-28T08:07:57.632Z,4.51
2018-11-28T08:08:57.496Z,4.52
2018-11-28T08:09:57.484Z,4.50
2018-11-28T08:10:57.537Z,4.51
2018-11-28T08:11:57.465Z,4.47
2018-11-28T08:12:57.448Z,4.51
2018-11-28T08:13:57.493Z,4.57
2018-11-28T08:14:57.426Z,4.54
2018-11-28T08:15:57.438Z,4.58
2018-11-28T08:16:57.450Z,4.52
2018-11-28T08:17:57.399Z,4.55
2018-11-28T08:18:57.386Z,4.62
2018-11-28T08:19:57.458Z,4.69
2018-11-28T08:20:57.458Z,4.67
2018-11-28T08:21:57.352Z,4.59
2018-11-28T08:22:57.438Z,4.64
2018-11-28T08:23:57.349Z,4.67
2018-11-28T08:24:57.317Z,4.88
2018-11-28T08:25:57.371Z,4.86
2018-11-28T08:26:57.300Z,4.91
2018-11-28T08:27:57.447Z,4.75
2018-11-28T08:28:57.345Z,4.79
2018-11-28T08:29:57.297Z,4.86
2018-11-28T08:30:57.306Z,4.72
2018-11-28T08:31:57.261Z,4.75
2018-11-28T08:32:57.221Z,4.83
2018-11-28T08:33:57.253Z,4.83
2018-11-28T08:34:57.246Z,4.76
2018-11-28T08:36:39.471Z,4.69
2018-11-28T08:36:58.644Z,4.80
2018-11-28T08:37:57.231Z,4.83
2018-11-28T08:38:57.157Z,4.92
2018-11-28T08:39:57.143Z,4.86
2018-11-28T08:40:57.155Z,4.73
2018-11-28T08:41:57.144Z,4.84
2018-11-28T08:42:57.113Z,4.62
2018-11-28T08:43:57.096Z,4.62
2018-11-28T08:44:57.157Z,4.64
2018-11-28T08:45:57.144Z,4.67
2018-11-28T08:47:04.405Z,4.51
2018-11-28T08:47:57.064Z,4.51
2018-11-28T08:48:57.048Z,4.51
2018-11-28T08:49:57.054Z,4.51
2018-11-28T08:50:57.693Z,4.43
2018-11-28T08:51:57.008Z,4.43
2018-11-28T08:52:58.382Z,4.61
2018-11-28T08:53:56.996Z,4.50
2018-11-28T08:54:56.977Z,4.55
2018-11-28T08:55:57.216Z,4.62
2018-11-28T08:56:57.124Z,4.61
2018-11-28T08:57:56.953Z,4.50
2018-11-28T08:58:56.975Z,4.57
2018-11-28T08:59:56.977Z,4.46
2018-11-28T09:00:56.944Z,4.59
2018-11-28T09:01:56.915Z,4.55
2018-11-28T09:02:57.338Z,4.55
2018-11-28T09:03:56.890Z,4.61
2018-11-28T09:04:56.869Z,4.69
2018-11-28T09:06:00.087Z,4.72
2018-11-28T09:06:59.616Z,4.61
2018-11-28T09:07:57.079Z,4.64
2018-11-28T09:08:56.832Z,4.72
2018-11-28T09:09:56.922Z,4.69
2018-11-28T09:10:57.714Z,4.77
2018-11-28T09:11:56.792Z,4.77
2018-11-28T09:13:11.495Z,4.76
2018-11-28T09:13:56.795Z,4.76
2018-11-28T09:14:56.768Z,4.83
2018-11-28T09:15:57.232Z,4.69
2018-11-28T09:18:12.933Z,4.73
2018-11-28T09:19:12.760Z,4.69
2018-11-28T09:20:12.448Z,4.64
2018-11-28T09:21:12.570Z,4.69
2018-11-28T09:22:12.379Z,4.67
2018-11-28T09:23:12.360Z,4.72
2018-11-28T09:24:12.449Z,4.77
2018-11-28T09:25:12.372Z,4.77
2018-11-28T09:26:12.351Z,4.86
2018-11-28T09:27:12.409Z,4.79
2018-11-28T09:28:12.408Z,4.80
2018-11-28T09:29:13.217Z,4.79
2018-11-28T09:30:13.548Z,4.76
2018-11-28T09:31:13.273Z,4.84
2018-11-28T09:32:12.256Z,4.89
2018-11-28T09:33:12.275Z,4.83
2018-11-28T09:34:12.259Z,4.84
2018-11-28T09:35:12.234Z,4.86
2018-11-28T09:36:12.295Z,4.86
2018-11-28T09:37:12.204Z,4.80
2018-11-28T09:38:12.226Z,4.79
2018-11-28T09:39:12.184Z,4.86
2018-11-28T09:40:12.172Z,4.92
2018-11-28T09:41:12.216Z,4.89
2018-11-28T09:42:12.146Z,4.96
2018-11-28T09:43:12.146Z,5.01
2018-11-28T09:44:12.153Z,4.95
2018-11-28T09:45:12.187Z,5.02
2018-11-28T09:46:12.131Z,5.09
2018-11-28T09:47:12.097Z,5.23
2018-11-28T09:48:12.104Z,5.20
2018-11-28T09:49:12.090Z,5.23
2018-11-28T09:50:12.056Z,5.23
2018-11-28T09:51:12.081Z,5.17
2018-11-28T09:52:12.053Z,5.12
2018-11-28T09:53:12.024Z,5.20
2018-11-28T09:54:12.019Z,5.22
2018-11-28T09:55:12.097Z,5.14
2018-11-28T09:56:12.004Z,5.07
2018-11-28T09:57:12.007Z,5.13
2018-11-28T09:58:12.004Z,5.17
2018-11-28T09:59:11.969Z,5.27
2018-11-28T10:00:11.954Z,5.27
2018-11-28T10:01:11.942Z,5.30
2018-11-28T10:02:11.956Z,5.27
2018-11-28T10:03:11.971Z,5.20
2018-11-28T10:04:11.917Z,5.17
2018-11-28T10:05:11.888Z,5.17
2018-11-28T10:06:11.897Z,5.19
2018-11-28T10:07:11.896Z,5.16
2018-11-28T10:08:11.891Z,5.16
2018-11-28T10:09:11.855Z,5.22
2018-11-28T10:10:11.857Z,5.17
2018-11-28T10:11:11.822Z,5.25
2018-11-28T10:12:11.842Z,5.31
2018-11-28T10:13:11.841Z,5.30
2018-11-28T10:14:11.812Z,5.31
2018-11-28T10:15:11.789Z,5.34
2018-11-28T10:16:11.799Z,5.43
2018-11-28T10:17:11.787Z,5.31
2018-11-28T10:18:11.753Z,5.37
2018-11-28T10:19:11.793Z,5.40
2018-11-28T10:20:11.741Z,5.50
2018-11-28T10:21:11.720Z,5.53
2018-11-28T10:22:12.153Z,5.40
2018-11-28T10:23:11.846Z,5.38
2018-11-28T10:24:11.689Z,5.41
2018-11-28T10:25:11.676Z,5.53
2018-11-28T10:26:12.621Z,5.57
2018-11-28T10:27:21.962Z,5.45
2018-11-28T10:28:11.651Z,5.30
2018-11-28T10:29:32.694Z,5.43
2018-11-28T10:30:18.875Z,5.41
2018-11-28T10:31:19.853Z,5.45
2018-11-28T10:32:11.835Z,5.48
2018-11-28T10:33:11.894Z,5.53
2018-11-28T10:34:11.659Z,5.52
2018-11-28T10:35:11.647Z,5.59
2018-11-28T10:36:11.555Z,5.53
2018-11-28T10:37:12.221Z,5.49
2018-11-28T10:38:35.457Z,5.53
2018-11-28T10:39:11.525Z,5.59
2018-11-28T10:41:34.320Z,5.57
2018-11-28T10:43:58.978Z,5.67
2018-11-28T10:44:29.333Z,5.73
2018-11-28T10:45:28.637Z,5.66
2018-11-28T10:46:32.898Z,5.53
2018-11-28T10:47:29.497Z,5.68
2018-11-28T10:48:29.886Z,5.73
2018-11-28T10:49:28.817Z,5.74
2018-11-28T10:50:29.532Z,5.89
2018-11-28T10:51:43.734Z,5.93
2018-11-28T10:52:34.238Z,5.85
2018-11-28T10:53:28.731Z,5.85
2018-11-28T10:54:28.774Z,5.78
2018-11-28T10:55:28.807Z,5.77
2018-11-28T10:56:28.545Z,5.81
2018-11-28T10:57:28.586Z,5.85
2018-11-28T10:58:28.650Z,5.70
2018-11-28T11:06:37.722Z,5.81
2018-11-28T11:28:37.309Z,5.98
2018-11-28T11:29:11.744Z,5.93
2018-11-28T11:30:11.769Z,5.98
2018-11-28T11:31:12.651Z,6.01
2018-11-28T11:32:11.922Z,6.04
2018-11-28T11:33:33.469Z,5.95
